»·PEaware :: N921AL KAVX-KLAX

N921AL :: KAVX-KLAX

FLIGHT INFORMATION

Flight Status: Arrived
Operator: Privately registered:
United States
More flights under this callsign
Pilot: Alex L. (10007)
Aircraft: Unknown
(S76C)
More flights by this aircraft type
Origin: KAVX Catalina
United States
Destination: KLAX Los Angeles Intl
United States
More flights between these airports :: More routes between these airports
Route: +
File this flight plan on PilotEdge
Remarks:
Altitude:
(Current/Filed)
3,500ft
Speed:
(Current/Filed)
150kts
Departed: 25-Jan-16 08:11 PM
Arrived: 25-Jan-16 09:31 PM
Distance/Time
Traveled:
34nm/1:20
Distance/Time
To Go:
Arrived

Flight Plot

Page will automatically refresh every two minutes.

Flight plan parsing failed; only flown route is shown


Map Options




Map Legend


Flown Route
Filed Route
Departure Airport
Arrival Airport
Navaid (VOR, NDB)
Fix

Horizontal Profiles

Position Reports

Time Latitude Longitude Heading Altitude Ground
Speed
25-Jan-16 20:02 34.264562 -118.418301 131 1049ft 95kts
25-Jan-16 20:03 34.259772 -118.412562 134 1005ft 0kts
25-Jan-16 20:06 34.247821 -118.255700 127 2751ft 190kts
25-Jan-16 20:07 34.217238 -118.208349 127 2759ft 176kts
25-Jan-16 20:08 34.912312 -117.017284 127 3750ft 176kts
25-Jan-16 20:09 34.913257 -116.964941 67 6039ft 213kts
25-Jan-16 20:10 34.939558 -116.894978 64 9409ft 260kts
25-Jan-16 20:11 34.969864 -116.810590 70 12324ft 281kts
25-Jan-16 20:12 34.997453 -116.720240 69 12841ft 277kts
25-Jan-16 20:13 35.217004 -116.264387 69 12662ft 239kts
25-Jan-16 20:14 35.231686 -116.182847 78 12693ft 266kts
25-Jan-16 20:15 35.242299 -116.092055 84 12694ft 276kts
25-Jan-16 20:16 35.249651 -115.998374 84 12690ft 276kts
25-Jan-16 20:17 35.259748 -115.905572 72 12702ft 267kts
25-Jan-16 20:18 35.287849 -115.832855 61 12675ft 202kts
25-Jan-16 20:19 35.314595 -115.777136 51 12691ft 191kts
25-Jan-16 20:20 35.348471 -115.726514 50 12690ft 192kts
25-Jan-16 20:21 35.396771 -115.695821 13 12727ft 250kts
25-Jan-16 20:22 35.471228 -115.673644 13 12698ft 288kts
25-Jan-16 20:23 35.549010 -115.650440 13 12671ft 288kts
25-Jan-16 20:24 35.620701 -115.611178 47 12663ft 288kts
25-Jan-16 20:25 35.692762 -115.570950 17 12263ft 287kts
25-Jan-16 20:26 35.761535 -115.528865 51 9304ft 274kts
25-Jan-16 20:27 35.806786 -115.458988 58 6264ft 239kts
25-Jan-16 20:28 35.841906 -115.392399 63 6230ft 250kts
25-Jan-16 20:29 35.844792 -115.307638 76 5896ft 253kts
25-Jan-16 20:30 35.892802 -115.254891 5 4229ft 243kts
25-Jan-16 20:31 35.953101 -115.251105 0 4414ft 178kts
25-Jan-16 20:37 35.969311 -115.026941 92 10148ft 198kts
25-Jan-16 20:38 35.986623 -114.969139 34 10326ft 198kts
25-Jan-16 20:39 36.032092 -114.930591 27 10330ft 198kts
25-Jan-16 20:40 36.076356 -114.957664 300 10328ft 198kts
25-Jan-16 20:41 36.077118 -115.024722 267 10330ft 198kts
25-Jan-16 20:42 36.075082 -115.091797 267 10330ft 198kts
25-Jan-16 20:43 36.073030 -115.159814 267 10330ft 198kts
25-Jan-16 20:44 36.045438 -115.199407 147 10328ft 198kts
25-Jan-16 20:45 36.063798 -115.161890 331 10331ft 198kts
25-Jan-16 20:46 36.083032 -115.126277 145 10330ft 198kts
25-Jan-16 20:47 36.059450 -115.158244 309 10330ft 198kts
25-Jan-16 20:48 36.087492 -115.131504 126 10330ft 198kts
25-Jan-16 20:49 35.244033 -117.912171 155 10330ft 198kts
25-Jan-16 20:50 34.822136 -120.485851 155 10330ft 198kts
25-Jan-16 20:51 34.779685 -120.465593 151 10332ft 198kts
25-Jan-16 20:52 34.526325 -119.973709 149 9410ft 196kts
25-Jan-16 20:53 34.488986 -119.920371 113 7926ft 234kts
25-Jan-16 20:54 34.465788 -119.847419 104 7229ft 232kts
25-Jan-16 20:55 34.431871 -119.648344 103 7213ft 208kts
25-Jan-16 20:56 34.413844 -119.600755 116 7224ft 193kts
25-Jan-16 20:57 34.401930 -119.573398 117 7364ft 210kts
25-Jan-16 20:58 34.374544 -119.521622 124 7377ft 183kts
25-Jan-16 20:59 34.345736 -119.469623 123 7374ft 187kts
25-Jan-16 21:00 34.317850 -119.416353 108 7375ft 189kts
25-Jan-16 21:01 34.321512 -119.353731 85 7357ft 190kts
25-Jan-16 21:02 34.325917 -119.290491 84 7462ft 184kts
25-Jan-16 21:03 34.330805 -119.228885 84 7480ft 184kts
25-Jan-16 21:04 34.335470 -119.167187 84 7480ft 184kts
25-Jan-16 21:05 34.339900 -119.105494 84 7480ft 184kts
25-Jan-16 21:06 34.344609 -119.044817 83 7480ft 181kts
25-Jan-16 21:07 34.349000 -118.984779 84 7479ft 178kts
25-Jan-16 21:08 34.353332 -118.924748 84 7480ft 178kts
25-Jan-16 21:09 34.356220 -118.876734 101 7471ft 183kts
25-Jan-16 21:10 34.335237 -118.819911 112 7481ft 189kts
25-Jan-16 21:11 34.315521 -118.760740 112 7480ft 189kts
25-Jan-16 21:12 34.294878 -118.701123 113 7480ft 194kts
25-Jan-16 21:13 34.274418 -118.640947 112 7519ft 193kts
25-Jan-16 21:14 34.254332 -118.581554 112 7521ft 192kts
25-Jan-16 21:15 34.233692 -118.522261 112 7522ft 195kts
25-Jan-16 21:16 34.213244 -118.462209 110 7518ft 189kts
25-Jan-16 21:17 34.195412 -118.399571 110 7520ft 201kts
25-Jan-16 21:18 34.176535 -118.336949 110 7519ft 196kts
25-Jan-16 21:19 34.157883 -118.275586 109 7518ft 190kts
25-Jan-16 21:20 34.125673 -118.234444 186 7547ft 217kts
25-Jan-16 21:21 34.080630 -118.284897 262 4884ft 240kts
25-Jan-16 21:22 34.066043 -118.355820 252 4730ft 213kts
25-Jan-16 21:23 34.026044 -118.392291 181 4325ft 198kts
25-Jan-16 21:24 33.977026 -118.391412 180 1044ft 106kts
25-Jan-16 21:25 33.963235 -118.392742 233 474ft 77kts
25-Jan-16 21:26 33.966324 -118.404727 273 151ft 0kts
25-Jan-16 21:27 33.966324 -118.404727 273 151ft 0kts
25-Jan-16 21:28 33.966324 -118.404727 273 151ft 0kts
25-Jan-16 21:29 33.966324 -118.404727 273 151ft 0kts

Navigation Log

Ident Type
Flight plan parsing failed, navigation log unavailable